Tallahassee, FL

1:37 PM EDT on October 21, 2014 (GMT -0400)
Rickards High School WeatherSTEM | Change Station
CLOSE
Current Station
Personal Weather Station
Location: Tallahassee, FL
Elevation: 138 ft
Nearby Weather Stations

Elev 138 ft 30.41 °N, 84.26 °W | Updated 5 minutes ago

Clear
Clear
79.2 °F
Feels Like 81 °F
N
5.0
Wind Variable Wind from WSW
Gusts 8.0 mph

Today
High -- | Low -- °F
--% Chance of Precip.
Yesterday
High -- | Low -- °F
Precip. -- in
7:43 AM 6:59 PM
Waning Crescent, 5% visible
Pressure 29.99 in
Visibility 10.0 miles
Clouds Few 25000 ft
Heat Index 81 °F
Dew Point 65 °F
Humidity 61%
Rainfall 0.00 in
Snow Depth Not available.
UV 6.4 out of 12
Pollen 4.90 out of 12
Air Quality Not available.
Flu Activity Local Activity
METAR KTLH 211653Z 01006KT 10SM FEW250 26/13 A2999 RMK AO2 SLP155 FU SE OF AP T02610128

More Conditions Fewer Conditions

Pressure 29.99 in
Visibility 10.0 miles
Clouds Few 25000 ft
Heat Index 81 °F
Dew Point 65 °F
Humidity 61%
Rainfall 0.00 in
Snow Depth Not available.
UV 6.4 out of 12
Pollen 4.90 out of 12
Air Quality Not available.
Flu Activity Local Activity
METAR KTLH 211653Z 01006KT 10SM FEW250 26/13 A2999 RMK AO2 SLP155 FU SE OF AP T02610128

More Conditions Fewer Conditions

10-Day Weather Forecast

Almanac

Astronomy

Oct. 21, 2014 Rise Set
Actual Time 7:43 AM EDT 6:59 PM EDT
Civil Twilight 7:18 AM EDT 7:23 PM EDT
Nautical Twilight 6:50 AM EDT 7:51 PM EDT
Astronomical Twilight 6:22 AM EDT 8:19 PM EDT
Moon 5:35 AM EDT 5:45 PM EDT
Length of Visible Light 12h 04m
Length of Day
11h 16m
Tomorrow will be 1m 43s shorter.
Waning Crescent, 5% of the Moon is Illuminated
Today
Waning Crescent
Oct 23
New
Oct 30
First Quarter
Nov 6
Full
Nov 14
Last Quarter

Today's Extremes

State Highs State Lows

Community

WunderPhotos

Upload Photos

1,763,730 photos uploaded!

Nearby

Snow Depth

Station Depth Elevation
No new snow has been reported.

Earthquake Activity

City Distance Mag. Time & Date
No recent earthquake activity has been reported nearby.
Minimum magnitude displayed is 2.5.

Coastal Water Temperatures

Place Temperature
Apalachicola, FL 73.9 °F
Panama City, FL 75.9 °F

Nearby Weather Stations